createdAt,value
2022-10-10T00:00:26.018Z,77.63
2022-10-10T00:01:48.957Z,77.57
2022-10-10T00:02:52.102Z,77.84
2022-10-10T00:03:56.000Z,77.83
2022-10-10T00:04:59.018Z,77.78
2022-10-10T00:06:02.127Z,77.70
2022-10-10T00:07:05.284Z,77.67
2022-10-10T00:08:08.704Z,77.82
2022-10-10T00:09:11.853Z,77.75
2022-10-10T00:10:14.835Z,77.84
2022-10-10T00:11:20.164Z,77.80
2022-10-10T00:12:23.188Z,77.89
2022-10-10T00:13:26.247Z,77.67
2022-10-10T00:14:32.489Z,77.77
2022-10-10T00:15:35.680Z,77.75
2022-10-10T00:16:38.678Z,77.77
2022-10-10T00:17:43.774Z,77.56
2022-10-10T00:18:46.782Z,77.50
2022-10-10T00:19:49.834Z,77.67
2022-10-10T00:20:53.581Z,77.74
2022-10-10T00:21:56.522Z,77.73
2022-10-10T00:22:59.514Z,77.95
2022-10-10T00:24:02.642Z,77.88
2022-10-10T00:25:07.572Z,77.90
2022-10-10T00:26:14.924Z,77.84
2022-10-10T00:27:21.493Z,77.94
2022-10-10T00:28:24.875Z,77.88
2022-10-10T00:29:28.123Z,77.80
2022-10-10T00:30:31.831Z,77.60
2022-10-10T00:31:34.715Z,77.50
2022-10-10T00:32:37.757Z,77.63
2022-10-10T00:33:40.663Z,77.76
2022-10-10T00:34:43.863Z,77.90
2022-10-10T00:35:46.860Z,78.01
2022-10-10T00:36:50.252Z,78.04
2022-10-10T00:37:53.426Z,78.04
2022-10-10T00:38:56.384Z,77.99
2022-10-10T00:39:59.417Z,78.01
2022-10-10T00:41:02.849Z,78.02
2022-10-10T00:42:05.885Z,77.96
2022-10-10T00:43:10.407Z,78.18
2022-10-10T00:44:15.595Z,78.20
2022-10-10T00:45:39.311Z,77.99
2022-10-10T00:46:42.515Z,78.04
2022-10-10T00:47:45.892Z,78.06
2022-10-10T00:48:48.996Z,77.98
2022-10-10T00:49:51.979Z,78.10
2022-10-10T00:51:05.126Z,77.94
2022-10-10T00:52:10.978Z,78.46
2022-10-10T00:53:19.520Z,78.24
2022-10-10T00:54:24.579Z,78.65
2022-10-10T00:55:28.003Z,78.63
2022-10-10T00:56:41.733Z,78.64
2022-10-10T00:57:45.139Z,78.72
2022-10-10T00:58:52.890Z,78.73
2022-10-10T00:59:56.509Z,78.59
2022-10-10T01:00:59.603Z,78.56
2022-10-10T01:02:02.847Z,78.66
2022-10-10T01:03:06.081Z,78.65
2022-10-10T01:04:38.693Z,78.60
2022-10-10T01:05:46.057Z,78.55
2022-10-10T01:06:48.980Z,78.62
2022-10-10T01:07:52.470Z,78.70
2022-10-10T01:08:56.743Z,78.91
2022-10-10T01:10:05.231Z,78.98
2022-10-10T01:11:17.355Z,78.96
2022-10-10T01:12:23.110Z,79.02
2022-10-10T01:13:36.326Z,79.06
2022-10-10T01:14:54.340Z,79.17
2022-10-10T01:16:34.637Z,79.14
2022-10-10T01:17:46.755Z,79.09
2022-10-10T01:18:55.715Z,79.18
2022-10-10T01:20:55.838Z,79.31
2022-10-10T01:22:35.553Z,79.17
2022-10-10T01:23:54.454Z,79.32
2022-10-10T01:25:19.092Z,79.36
2022-10-10T01:26:31.353Z,79.38
2022-10-10T01:27:51.496Z,79.40
2022-10-10T01:29:00.173Z,79.49
2022-10-10T01:30:09.888Z,79.42
2022-10-10T01:31:15.920Z,79.45
2022-10-10T01:32:44.182Z,79.45
2022-10-10T01:33:55.076Z,79.54
2022-10-10T01:35:17.876Z,79.48
2022-10-10T01:36:58.576Z,79.69
2022-10-10T01:38:22.628Z,79.37
2022-10-10T01:39:49.792Z,79.40
2022-10-10T01:41:09.287Z,79.58
2022-10-10T01:42:23.470Z,79.63
2022-10-10T01:43:26.808Z,79.43
2022-10-10T01:44:29.750Z,79.75
2022-10-10T01:45:32.854Z,79.79
2022-10-10T01:46:35.877Z,79.84
2022-10-10T01:47:39.239Z,79.77
2022-10-10T01:48:45.080Z,79.94
2022-10-10T01:49:51.492Z,79.75
2022-10-10T01:51:26.204Z,79.89
2022-10-10T01:52:56.244Z,80.10
2022-10-10T01:54:21.363Z,80.20
2022-10-10T01:55:50.180Z,80.16
2022-10-10T01:57:02.301Z,80.31
2022-10-10T01:58:26.875Z,80.16
2022-10-10T02:00:03.628Z,80.16
2022-10-10T02:01:18.494Z,80.27
2022-10-10T02:02:54.224Z,80.32
2022-10-10T02:04:30.041Z,80.35
2022-10-10T02:05:54.970Z,80.30
2022-10-10T02:07:14.999Z,80.39
2022-10-10T02:08:36.010Z,80.35
2022-10-10T02:09:42.872Z,80.34
2022-10-10T02:10:53.194Z,80.61
2022-10-10T02:11:59.715Z,80.49
2022-10-10T02:13:05.210Z,80.55
2022-10-10T02:14:31.797Z,80.44
2022-10-10T02:15:43.512Z,80.47
2022-10-10T02:16:50.079Z,80.80
2022-10-10T02:17:56.497Z,80.62
2022-10-10T02:19:00.225Z,80.41
2022-10-10T02:20:07.923Z,80.38
2022-10-10T02:21:13.013Z,80.81
2022-10-10T02:22:17.252Z,80.69
2022-10-10T02:23:22.286Z,80.78
2022-10-10T02:24:25.466Z,80.75
2022-10-10T02:25:32.989Z,81.06
2022-10-10T02:26:37.335Z,81.17
2022-10-10T02:27:48.552Z,81.26
2022-10-10T02:29:01.121Z,81.17
2022-10-10T02:30:05.726Z,81.27
2022-10-10T02:32:54.922Z,81.26
2022-10-10T02:34:06.425Z,81.33
2022-10-10T02:35:24.561Z,81.12
2022-10-10T02:36:28.976Z,81.06
2022-10-10T02:37:33.174Z,81.17
2022-10-10T02:38:36.705Z,81.17
2022-10-10T02:39:53.847Z,81.32
2022-10-10T02:41:03.959Z,81.35
2022-10-10T02:42:08.792Z,81.16
2022-10-10T02:43:14.389Z,81.29
2022-10-10T02:44:18.166Z,81.32
2022-10-10T02:45:22.335Z,81.14
2022-10-10T02:46:25.353Z,81.62
2022-10-10T02:47:28.447Z,81.62
2022-10-10T02:48:31.453Z,81.55
2022-10-10T02:49:35.295Z,81.86
2022-10-10T02:50:38.587Z,81.80
2022-10-10T02:51:41.598Z,81.66
2022-10-10T02:52:44.491Z,82.10
2022-10-10T02:53:47.546Z,81.86
2022-10-10T02:54:50.509Z,81.91
2022-10-10T02:55:53.617Z,81.73
2022-10-10T02:56:56.695Z,81.52
2022-10-10T02:57:59.607Z,82.00
2022-10-10T02:59:02.517Z,82.21
2022-10-10T03:00:06.619Z,82.07
2022-10-10T03:01:10.678Z,81.84
2022-10-10T03:02:14.696Z,82.20
2022-10-10T03:03:17.696Z,81.78
2022-10-10T03:04:20.635Z,81.92
2022-10-10T03:05:23.784Z,81.98
2022-10-10T03:06:26.879Z,81.88
2022-10-10T03:07:29.803Z,81.64
2022-10-10T03:08:32.911Z,81.81
2022-10-10T03:09:35.945Z,81.79
2022-10-10T03:10:39.120Z,82.00
2022-10-10T03:11:42.368Z,82.27
2022-10-10T03:12:45.303Z,82.24
2022-10-10T03:13:48.247Z,82.53
2022-10-10T03:14:51.263Z,82.17
2022-10-10T03:15:54.656Z,82.22
2022-10-10T03:16:58.025Z,82.08
2022-10-10T03:18:01.119Z,82.44
2022-10-10T03:19:04.307Z,82.25
2022-10-10T03:20:08.362Z,82.44
2022-10-10T03:21:11.618Z,82.30
2022-10-10T03:22:14.619Z,82.55
2022-10-10T03:23:17.592Z,82.67
2022-10-10T03:24:20.884Z,82.68
2022-10-10T03:25:23.816Z,82.58
2022-10-10T03:26:27.210Z,82.45
2022-10-10T03:27:30.330Z,82.66
2022-10-10T03:28:33.435Z,82.57
2022-10-10T03:29:36.539Z,82.68
2022-10-10T03:30:40.086Z,82.71
2022-10-10T03:31:43.078Z,82.67
2022-10-10T03:32:46.275Z,82.63
2022-10-10T03:33:49.341Z,82.68
2022-10-10T03:34:52.241Z,82.54
2022-10-10T03:35:55.365Z,82.42
2022-10-10T03:36:58.495Z,82.46
2022-10-10T03:38:02.173Z,82.56
2022-10-10T03:39:05.450Z,82.55
2022-10-10T03:40:09.248Z,82.54
2022-10-10T03:41:12.382Z,82.48
2022-10-10T03:42:15.269Z,82.58
2022-10-10T03:43:18.251Z,82.70
2022-10-10T03:44:21.133Z,82.83
2022-10-10T03:45:24.628Z,82.53
2022-10-10T03:46:27.941Z,82.96
2022-10-10T03:47:31.123Z,82.85
2022-10-10T03:48:34.263Z,82.56
2022-10-10T03:49:37.212Z,82.73
2022-10-10T03:50:40.417Z,82.87
2022-10-10T03:51:43.476Z,82.86
2022-10-10T03:52:46.468Z,82.89
2022-10-10T03:53:49.649Z,82.78
2022-10-10T03:54:52.647Z,82.73
2022-10-10T03:55:55.738Z,82.80
2022-10-10T03:56:58.746Z,82.96
2022-10-10T03:58:01.943Z,82.67
2022-10-10T03:59:06.284Z,82.95
2022-10-10T04:00:29.284Z,83.03
2022-10-10T04:01:33.844Z,83.03
2022-10-10T04:02:37.047Z,83.11
2022-10-10T04:03:40.855Z,83.21
2022-10-10T04:04:44.307Z,82.96
2022-10-10T04:05:47.292Z,82.91
2022-10-10T04:06:50.216Z,82.81
2022-10-10T04:07:53.234Z,83.07
2022-10-10T04:08:56.421Z,83.17
2022-10-10T04:09:59.650Z,83.16
2022-10-10T04:11:02.662Z,83.29
2022-10-10T04:12:05.682Z,83.21
2022-10-10T04:13:08.837Z,83.03
2022-10-10T04:14:11.878Z,83.07
2022-10-10T04:15:14.954Z,82.93
2022-10-10T04:16:17.857Z,83.02
2022-10-10T04:17:20.920Z,82.94
2022-10-10T04:18:24.480Z,83.24
2022-10-10T04:19:27.484Z,82.85
2022-10-10T04:20:30.577Z,83.17
2022-10-10T04:21:34.038Z,83.23
2022-10-10T04:22:37.118Z,83.13
2022-10-10T04:23:41.341Z,83.31
2022-10-10T04:24:44.355Z,83.21
2022-10-10T04:25:51.411Z,83.12
2022-10-10T04:26:54.439Z,83.11
2022-10-10T04:28:01.031Z,83.35
2022-10-10T04:29:04.643Z,83.24
2022-10-10T04:30:08.061Z,83.25
2022-10-10T04:31:11.759Z,83.32
2022-10-10T04:32:14.708Z,83.34
2022-10-10T04:33:17.862Z,83.48
2022-10-10T04:34:20.860Z,83.27
2022-10-10T04:35:24.076Z,83.64
2022-10-10T04:36:27.207Z,83.60
2022-10-10T04:37:30.250Z,83.26
2022-10-10T04:38:33.358Z,83.45
2022-10-10T04:39:36.321Z,83.47
2022-10-10T04:40:39.354Z,83.60
2022-10-10T04:41:43.147Z,83.39
2022-10-10T04:42:46.069Z,83.42
2022-10-10T04:43:49.101Z,83.43
2022-10-10T04:44:52.028Z,83.72
2022-10-10T04:45:57.563Z,83.49
2022-10-10T04:47:00.849Z,83.60
2022-10-10T04:48:03.878Z,83.59
2022-10-10T04:49:06.841Z,83.43
2022-10-10T04:50:10.009Z,83.45
2022-10-10T04:51:13.121Z,83.62
2022-10-10T04:52:16.336Z,83.65
2022-10-10T04:53:19.384Z,83.77
2022-10-10T04:54:22.501Z,83.67
2022-10-10T04:55:25.480Z,83.99
2022-10-10T04:56:28.483Z,83.85
2022-10-10T04:57:31.664Z,83.79
2022-10-10T04:58:34.750Z,83.75
2022-10-10T04:59:37.740Z,83.87
2022-10-10T05:00:41.321Z,83.57
2022-10-10T05:01:44.498Z,84.14
2022-10-10T05:02:47.800Z,84.10
2022-10-10T05:03:50.831Z,83.83
2022-10-10T05:04:53.736Z,84.00
2022-10-10T05:05:56.680Z,84.40
2022-10-10T05:06:59.944Z,84.33
2022-10-10T05:08:03.124Z,84.30
2022-10-10T05:09:06.074Z,84.61
2022-10-10T05:10:09.781Z,84.61
2022-10-10T05:11:12.685Z,84.42
2022-10-10T05:12:15.863Z,84.67
2022-10-10T05:13:19.057Z,84.72
2022-10-10T05:14:21.985Z,84.90
2022-10-10T05:15:24.982Z,84.94
2022-10-10T05:16:27.986Z,84.79
2022-10-10T05:17:31.059Z,84.98
2022-10-10T05:18:37.426Z,84.93
2022-10-10T05:19:40.507Z,84.97
2022-10-10T05:20:47.556Z,84.72
2022-10-10T05:21:50.478Z,84.82
2022-10-10T05:22:53.997Z,85.13
2022-10-10T05:23:57.204Z,85.29
2022-10-10T05:25:00.496Z,85.24
2022-10-10T05:26:04.553Z,84.93
2022-10-10T05:27:07.571Z,85.60
2022-10-10T05:28:11.151Z,85.50
2022-10-10T05:29:14.543Z,85.59
2022-10-10T05:30:17.645Z,85.24
2022-10-10T05:31:20.804Z,85.49
2022-10-10T05:32:23.988Z,85.63
2022-10-10T05:33:27.086Z,85.72
2022-10-10T05:34:30.148Z,85.58
2022-10-10T05:35:33.481Z,85.60
2022-10-10T05:36:36.522Z,85.97
2022-10-10T05:37:39.496Z,85.87
2022-10-10T05:38:42.803Z,85.73
2022-10-10T05:39:46.161Z,85.98
2022-10-10T05:40:49.131Z,86.13
2022-10-10T05:41:52.223Z,86.19
2022-10-10T05:42:55.226Z,86.35
2022-10-10T05:43:58.298Z,86.56
2022-10-10T05:45:01.360Z,86.69
2022-10-10T05:46:05.023Z,86.71
2022-10-10T05:47:08.445Z,86.75
2022-10-10T05:48:11.343Z,86.38
2022-10-10T05:49:14.507Z,86.77
2022-10-10T05:50:41.787Z,86.56
2022-10-10T05:51:44.728Z,86.69
2022-10-10T05:52:47.943Z,86.73
2022-10-10T05:53:51.065Z,86.70
2022-10-10T05:54:54.123Z,86.55
2022-10-10T05:55:57.549Z,86.62
2022-10-10T05:57:00.667Z,86.65
2022-10-10T05:58:03.934Z,86.46
2022-10-10T05:59:06.967Z,86.51
2022-10-10T06:00:10.514Z,86.78
2022-10-10T06:01:13.825Z,86.69
2022-10-10T06:02:16.884Z,86.71
2022-10-10T06:03:20.104Z,86.75
2022-10-10T06:04:23.543Z,86.66
2022-10-10T06:05:26.791Z,86.59
2022-10-10T06:06:30.236Z,86.69
2022-10-10T06:07:52.330Z,86.62
2022-10-10T06:08:56.420Z,86.58
2022-10-10T06:09:59.361Z,86.69
2022-10-10T06:11:11.357Z,86.56
2022-10-10T06:12:15.038Z,86.74
2022-10-10T06:13:24.044Z,86.88
2022-10-10T06:14:27.674Z,86.88
2022-10-10T06:15:30.999Z,86.76
2022-10-10T06:16:35.142Z,86.93
2022-10-10T06:17:38.260Z,86.94
2022-10-10T06:18:41.247Z,86.95
2022-10-10T06:19:44.620Z,87.01
2022-10-10T06:20:47.609Z,86.91
2022-10-10T06:21:50.607Z,86.98
2022-10-10T06:22:53.838Z,86.96
2022-10-10T06:23:57.236Z,87.11
2022-10-10T06:25:00.301Z,87.29
2022-10-10T06:26:04.385Z,86.96
2022-10-10T06:27:07.506Z,87.15
2022-10-10T06:28:11.233Z,86.84
2022-10-10T06:29:14.366Z,86.70
2022-10-10T06:30:17.352Z,86.60
2022-10-10T06:31:20.486Z,86.52
2022-10-10T06:32:23.462Z,86.49
2022-10-10T06:33:27.171Z,86.57
2022-10-10T06:34:30.177Z,86.52
2022-10-10T06:35:33.192Z,86.49
2022-10-10T06:36:36.175Z,86.35
2022-10-10T06:37:39.404Z,86.32
2022-10-10T06:38:45.225Z,86.38
2022-10-10T06:39:48.420Z,86.53
2022-10-10T06:40:51.342Z,86.14
2022-10-10T06:41:54.402Z,86.14
2022-10-10T06:42:57.349Z,86.37
2022-10-10T06:44:00.445Z,86.30
2022-10-10T06:45:03.961Z,86.14
2022-10-10T06:46:07.789Z,86.06
2022-10-10T06:47:12.829Z,85.91
2022-10-10T06:48:15.908Z,85.78
2022-10-10T06:49:19.148Z,85.77
2022-10-10T06:50:22.419Z,85.70
2022-10-10T06:51:26.040Z,86.02
2022-10-10T06:52:29.070Z,85.51
2022-10-10T06:53:32.721Z,85.71
2022-10-10T06:54:36.609Z,85.71
2022-10-10T06:55:47.014Z,85.58
2022-10-10T06:56:50.030Z,85.03
2022-10-10T06:57:53.848Z,85.31
2022-10-10T06:58:57.068Z,85.20
2022-10-10T07:00:00.161Z,85.22
2022-10-10T07:01:04.717Z,85.03
2022-10-10T07:02:07.756Z,84.80
2022-10-10T07:03:12.763Z,84.45
2022-10-10T07:04:15.798Z,84.06
2022-10-10T07:05:19.134Z,83.87
2022-10-10T07:06:22.478Z,84.15
2022-10-10T07:07:25.687Z,83.62
2022-10-10T07:08:29.777Z,83.85
2022-10-10T07:09:32.829Z,83.87
2022-10-10T07:10:36.848Z,83.69
2022-10-10T07:11:45.255Z,83.59
2022-10-10T07:12:48.600Z,83.20
2022-10-10T07:13:53.737Z,83.12
2022-10-10T07:14:56.836Z,82.94
2022-10-10T07:16:00.369Z,82.68
2022-10-10T07:17:03.471Z,82.72
2022-10-10T07:18:06.861Z,82.26
2022-10-10T07:19:12.999Z,82.40
2022-10-10T07:20:16.187Z,81.92
2022-10-10T07:21:19.684Z,81.52
2022-10-10T07:22:22.689Z,81.92
2022-10-10T07:23:26.411Z,82.12
2022-10-10T07:24:29.317Z,81.62
2022-10-10T07:25:32.507Z,81.72
2022-10-10T07:26:38.317Z,81.80
2022-10-10T07:27:41.599Z,81.47
2022-10-10T07:28:45.215Z,81.43
2022-10-10T07:29:48.304Z,82.00
2022-10-10T07:30:51.323Z,81.73
2022-10-10T07:31:54.313Z,81.59
2022-10-10T07:32:57.339Z,81.90
2022-10-10T07:34:00.332Z,81.17
2022-10-10T07:35:03.560Z,81.30
2022-10-10T07:36:07.704Z,81.02
2022-10-10T07:37:10.896Z,81.47
2022-10-10T07:38:14.061Z,81.47
2022-10-10T07:39:21.433Z,81.26
2022-10-10T07:40:24.833Z,81.02
2022-10-10T07:41:27.886Z,80.84
2022-10-10T07:42:30.985Z,81.09
2022-10-10T07:43:34.034Z,81.26
2022-10-10T07:44:37.019Z,80.94
2022-10-10T07:45:39.985Z,80.90
2022-10-10T07:46:43.227Z,80.77
2022-10-10T07:47:46.520Z,80.57
2022-10-10T07:48:49.876Z,80.04
2022-10-10T07:49:53.097Z,79.56
2022-10-10T07:50:56.035Z,79.96
2022-10-10T07:52:01.461Z,79.86
2022-10-10T07:53:06.197Z,79.89
2022-10-10T07:54:10.086Z,80.11
2022-10-10T07:55:13.109Z,80.03
2022-10-10T07:56:35.069Z,79.79
2022-10-10T07:57:38.257Z,79.86
2022-10-10T07:58:41.384Z,79.56
2022-10-10T07:59:45.813Z,79.86
2022-10-10T08:00:48.937Z,79.51
2022-10-10T08:01:52.127Z,79.05
2022-10-10T08:02:55.350Z,79.91
2022-10-10T08:03:58.965Z,79.82
2022-10-10T08:05:02.023Z,79.00
2022-10-10T08:06:07.634Z,79.40
2022-10-10T08:07:10.692Z,79.05
2022-10-10T08:08:13.666Z,78.63
2022-10-10T08:09:17.055Z,78.74
2022-10-10T08:10:20.749Z,78.48
2022-10-10T08:11:23.825Z,78.19
2022-10-10T08:12:26.917Z,78.13
2022-10-10T08:13:30.203Z,78.33
2022-10-10T08:14:33.347Z,77.76
2022-10-10T08:15:39.554Z,77.28
2022-10-10T08:16:42.581Z,77.13
2022-10-10T08:17:45.660Z,77.49
2022-10-10T08:18:48.999Z,77.48
2022-10-10T08:19:52.138Z,77.06
2022-10-10T08:20:59.728Z,76.57
2022-10-10T08:22:02.855Z,76.79
2022-10-10T08:23:05.846Z,76.88
2022-10-10T08:24:08.913Z,76.77
2022-10-10T08:25:12.104Z,77.07
2022-10-10T08:26:17.296Z,76.52
2022-10-10T08:27:20.992Z,76.39
2022-10-10T08:28:24.075Z,75.69
2022-10-10T08:29:27.239Z,75.96
2022-10-10T08:30:30.403Z,75.92
2022-10-10T08:31:33.322Z,76.00
2022-10-10T08:32:36.514Z,75.96
2022-10-10T08:33:42.430Z,76.04
2022-10-10T08:34:45.667Z,75.87
2022-10-10T08:35:49.168Z,76.42
2022-10-10T08:36:52.234Z,75.93
2022-10-10T08:37:55.264Z,75.71
2022-10-10T08:39:00.978Z,75.56
2022-10-10T08:40:04.724Z,75.51
2022-10-10T08:41:35.260Z,75.88
2022-10-10T08:42:47.850Z,75.50
2022-10-10T08:43:55.509Z,75.76
2022-10-10T08:45:02.848Z,75.69
2022-10-10T08:46:30.776Z,76.20
2022-10-10T08:47:47.188Z,75.79
2022-10-10T08:48:52.550Z,75.65
2022-10-10T08:50:00.447Z,75.56
2022-10-10T08:51:09.677Z,75.44
2022-10-10T08:52:28.068Z,75.46
2022-10-10T08:53:48.945Z,75.56
2022-10-10T08:54:58.131Z,75.52
2022-10-10T08:56:05.067Z,75.18
2022-10-10T08:57:22.599Z,75.35
2022-10-10T08:58:33.929Z,75.53
2022-10-10T08:59:40.789Z,75.04
2022-10-10T09:00:49.399Z,74.50
2022-10-10T09:02:20.116Z,74.26
2022-10-10T09:03:30.521Z,74.03
2022-10-10T09:04:34.247Z,74.00
2022-10-10T09:05:48.278Z,74.06
2022-10-10T09:07:12.277Z,74.56
2022-10-10T09:08:39.496Z,73.96
2022-10-10T09:10:03.464Z,73.05
2022-10-10T09:11:35.684Z,73.28
2022-10-10T09:13:07.892Z,73.47
2022-10-10T09:14:26.109Z,73.20
2022-10-10T09:15:55.823Z,72.76
2022-10-10T09:17:14.217Z,72.56
2022-10-10T09:18:35.567Z,72.24
2022-10-10T09:19:53.279Z,72.76
2022-10-10T09:21:05.287Z,72.60
2022-10-10T09:22:16.654Z,71.86
2022-10-10T09:23:30.402Z,71.62
2022-10-10T09:24:43.793Z,71.29
2022-10-10T09:25:56.345Z,71.06
2022-10-10T09:27:04.773Z,70.50
2022-10-10T09:28:25.249Z,70.68
2022-10-10T09:29:35.238Z,70.92
2022-10-10T09:30:44.382Z,71.43
2022-10-10T09:31:52.391Z,71.42
2022-10-10T09:33:30.570Z,70.33
2022-10-10T09:34:43.637Z,69.78
2022-10-10T09:35:48.528Z,69.70
2022-10-10T09:36:54.179Z,69.68
2022-10-10T09:38:30.182Z,69.21
2022-10-10T09:39:37.252Z,69.93
2022-10-10T09:40:48.419Z,70.32
2022-10-10T09:41:51.380Z,70.02
2022-10-10T09:42:56.213Z,70.25
2022-10-10T09:44:02.576Z,69.63
2022-10-10T09:45:27.466Z,69.44
2022-10-10T09:46:30.705Z,69.31
2022-10-10T09:47:33.662Z,69.62
2022-10-10T09:48:39.196Z,68.65
2022-10-10T09:49:43.908Z,67.67
2022-10-10T09:50:47.015Z,68.72
2022-10-10T09:51:50.583Z,68.31
2022-10-10T09:52:53.882Z,68.23
2022-10-10T09:53:56.928Z,68.56
2022-10-10T09:55:06.738Z,67.51
2022-10-10T09:56:18.488Z,67.91
2022-10-10T09:57:26.133Z,67.36
2022-10-10T09:58:42.597Z,66.71
2022-10-10T09:59:46.660Z,66.55
2022-10-10T10:00:50.478Z,65.74
2022-10-10T10:02:03.967Z,66.09
2022-10-10T10:03:16.466Z,66.78
2022-10-10T10:04:28.215Z,67.23
2022-10-10T10:05:33.410Z,66.46
2022-10-10T10:06:37.681Z,64.68
2022-10-10T10:07:48.326Z,64.87
2022-10-10T10:08:53.061Z,65.18
2022-10-10T10:10:02.198Z,65.57
2022-10-10T10:11:18.866Z,65.99
2022-10-10T10:12:48.165Z,65.85
2022-10-10T10:13:55.734Z,65.13
2022-10-10T10:15:16.987Z,63.84
2022-10-10T10:16:19.993Z,63.09
2022-10-10T10:17:24.571Z,62.90
2022-10-10T10:18:29.502Z,62.92
2022-10-10T10:19:41.651Z,63.37
2022-10-10T10:20:48.339Z,61.78
2022-10-10T10:21:52.609Z,61.70
2022-10-10T10:22:56.349Z,62.87
2022-10-10T10:24:21.492Z,62.98
2022-10-10T10:25:38.554Z,61.50
2022-10-10T10:26:41.702Z,60.63
2022-10-10T10:27:44.618Z,61.00
2022-10-10T10:28:49.505Z,60.89
2022-10-10T10:29:55.360Z,60.79
2022-10-10T10:30:59.347Z,61.65
2022-10-10T10:32:18.047Z,60.57
2022-10-10T10:33:42.644Z,61.20
2022-10-10T10:35:04.113Z,60.55
2022-10-10T10:36:51.428Z,61.25
2022-10-10T10:38:17.283Z,59.62
2022-10-10T10:39:35.462Z,61.24
2022-10-10T10:40:42.959Z,61.20
2022-10-10T10:42:10.841Z,60.99
2022-10-10T10:43:37.968Z,59.70
2022-10-10T10:44:51.517Z,60.95
2022-10-10T10:46:22.261Z,60.96
2022-10-10T10:47:48.191Z,59.79
2022-10-10T10:49:18.755Z,59.36
2022-10-10T10:50:27.831Z,59.92
2022-10-10T10:51:55.536Z,59.06
2022-10-10T10:53:30.657Z,58.58
2022-10-10T10:55:11.127Z,56.76
2022-10-10T10:56:23.834Z,58.50
2022-10-10T10:57:39.341Z,58.91
2022-10-10T10:59:41.797Z,58.34
2022-10-10T11:01:22.598Z,58.28
2022-10-10T11:02:59.703Z,59.21
2022-10-10T11:05:21.323Z,59.44
2022-10-10T11:05:58.701Z,59.72
2022-10-10T11:07:34.376Z,59.22
2022-10-10T11:08:56.958Z,59.49
2022-10-10T11:10:30.293Z,59.02
2022-10-10T11:11:33.750Z,58.66
2022-10-10T11:12:55.442Z,58.58
2022-10-10T11:14:23.250Z,58.17
2022-10-10T11:15:37.559Z,58.24
2022-10-10T11:16:53.426Z,57.85
2022-10-10T11:18:08.750Z,57.08
2022-10-10T11:19:11.870Z,56.32
2022-10-10T11:20:32.598Z,56.53
2022-10-10T11:21:42.830Z,56.96
2022-10-10T11:22:52.821Z,55.76
2022-10-10T11:24:06.278Z,55.72
2022-10-10T11:25:23.884Z,55.41
2022-10-10T11:26:33.028Z,54.81
2022-10-10T11:27:44.894Z,53.43
2022-10-10T11:28:54.022Z,53.38
2022-10-10T11:30:08.286Z,53.42
2022-10-10T11:31:21.163Z,53.55
2022-10-10T11:32:33.987Z,53.87
2022-10-10T11:33:42.676Z,52.47
2022-10-10T11:35:16.232Z,53.50
2022-10-10T11:36:23.810Z,52.80
2022-10-10T11:37:31.138Z,53.08
2022-10-10T11:38:45.085Z,52.54
2022-10-10T11:39:55.755Z,53.57
2022-10-10T11:41:07.851Z,53.05
2022-10-10T11:42:22.702Z,53.25
2022-10-10T11:43:57.921Z,53.66
2022-10-10T11:45:14.603Z,52.92
2022-10-10T11:46:26.755Z,52.28
2022-10-10T11:47:50.968Z,52.86
2022-10-10T11:49:24.091Z,51.47
2022-10-10T11:50:31.128Z,52.03
2022-10-10T11:51:42.434Z,51.34
2022-10-10T11:53:02.780Z,52.34
2022-10-10T11:54:09.986Z,52.27
2022-10-10T11:55:22.560Z,50.93
2022-10-10T11:56:41.358Z,50.09
2022-10-10T11:57:57.881Z,48.13
2022-10-10T11:59:22.919Z,48.77
2022-10-10T12:00:29.170Z,49.37
2022-10-10T12:01:42.220Z,49.77
2022-10-10T12:02:46.807Z,48.60
2022-10-10T12:03:52.244Z,48.83
2022-10-10T12:04:55.565Z,49.37
2022-10-10T12:06:23.648Z,48.89
2022-10-10T12:07:33.076Z,49.00
2022-10-10T12:08:42.465Z,49.04
2022-10-10T12:09:50.732Z,48.56
2022-10-10T12:11:06.669Z,47.29
2022-10-10T12:12:19.901Z,48.24
2022-10-10T12:13:34.262Z,48.04
2022-10-10T12:14:41.429Z,48.94
2022-10-10T12:15:49.869Z,47.42
2022-10-10T12:16:54.108Z,48.10
2022-10-10T12:17:57.862Z,48.20
2022-10-10T12:19:24.591Z,48.27
2022-10-10T12:20:27.682Z,48.48
2022-10-10T12:21:31.974Z,48.85
2022-10-10T12:22:35.157Z,48.51
2022-10-10T12:23:38.936Z,48.38
2022-10-10T12:25:20.601Z,47.29
2022-10-10T12:26:24.448Z,46.93
2022-10-10T12:27:41.688Z,47.39
2022-10-10T12:29:02.927Z,47.69
2022-10-10T12:30:09.377Z,46.15
2022-10-10T12:31:12.363Z,46.45
2022-10-10T12:32:15.325Z,45.98
2022-10-10T12:33:45.600Z,45.45
2022-10-10T12:34:48.692Z,45.36
2022-10-10T12:35:51.759Z,44.62
2022-10-10T12:37:09.360Z,45.63
2022-10-10T12:38:20.108Z,46.48
2022-10-10T12:39:26.007Z,45.55
2022-10-10T12:40:29.177Z,46.18
2022-10-10T12:41:47.379Z,45.29
2022-10-10T12:42:51.557Z,45.85
2022-10-10T12:44:19.111Z,46.67
2022-10-10T12:45:33.975Z,46.02
2022-10-10T12:46:37.391Z,44.48
2022-10-10T12:48:04.384Z,43.74
2022-10-10T12:49:26.352Z,43.30
2022-10-10T12:50:32.551Z,43.72
2022-10-10T12:51:44.113Z,43.76
2022-10-10T12:52:55.762Z,42.85
2022-10-10T12:54:01.824Z,43.05
2022-10-10T12:55:21.728Z,43.61
2022-10-10T12:56:51.336Z,42.79
2022-10-10T12:57:57.996Z,43.20
2022-10-10T12:59:01.249Z,43.28
2022-10-10T13:00:19.021Z,43.55
2022-10-10T13:01:27.022Z,43.90
2022-10-10T13:02:30.307Z,43.62
2022-10-10T13:03:42.580Z,43.29
2022-10-10T13:04:48.833Z,42.63
2022-10-10T13:05:53.177Z,42.98
2022-10-10T13:07:00.079Z,43.02
2022-10-10T13:08:06.833Z,41.59
2022-10-10T13:09:29.931Z,42.54
2022-10-10T13:10:36.987Z,41.62
2022-10-10T13:11:58.533Z,42.02
2022-10-10T13:13:13.813Z,42.40
2022-10-10T13:14:16.908Z,42.03
2022-10-10T13:15:21.153Z,40.30
2022-10-10T13:16:31.302Z,40.55
2022-10-10T13:17:41.256Z,40.30
2022-10-10T13:18:51.262Z,41.20
2022-10-10T13:19:55.915Z,40.90
2022-10-10T13:21:00.269Z,40.78
2022-10-10T13:22:04.143Z,40.76
2022-10-10T13:23:15.888Z,40.37
2022-10-10T13:24:26.259Z,39.88
2022-10-10T13:25:29.493Z,41.02
2022-10-10T13:26:34.433Z,41.19
2022-10-10T13:27:37.482Z,40.55
2022-10-10T13:28:44.608Z,40.03
2022-10-10T13:29:48.262Z,39.78
2022-10-10T13:30:51.915Z,40.26
2022-10-10T13:32:00.394Z,39.20
2022-10-10T13:33:03.722Z,39.24
2022-10-10T13:34:07.562Z,39.75
2022-10-10T13:35:17.459Z,40.08
2022-10-10T13:36:22.251Z,39.49
2022-10-10T13:37:26.541Z,40.15
2022-10-10T13:38:29.563Z,38.91
2022-10-10T13:39:36.611Z,38.76
2022-10-10T13:40:42.611Z,39.02
2022-10-10T13:41:47.641Z,39.00
2022-10-10T13:42:52.344Z,38.39
2022-10-10T13:43:55.633Z,39.48
2022-10-10T13:45:03.158Z,39.04
2022-10-10T13:46:06.822Z,38.99
2022-10-10T13:47:47.657Z,39.08
2022-10-10T13:48:51.112Z,38.99
2022-10-10T13:49:56.840Z,38.42
2022-10-10T13:51:04.753Z,38.21
2022-10-10T13:52:24.215Z,38.45
2022-10-10T13:53:27.487Z,37.99
2022-10-10T13:54:38.380Z,38.47
2022-10-10T13:55:41.939Z,38.03
2022-10-10T13:56:44.972Z,38.91
2022-10-10T13:57:50.760Z,38.80
2022-10-10T13:59:06.037Z,38.82
2022-10-10T14:00:18.770Z,38.86
2022-10-10T14:01:39.315Z,39.15
2022-10-10T14:02:45.787Z,39.10
2022-10-10T14:03:51.800Z,39.48
2022-10-10T14:04:55.385Z,39.59
2022-10-10T14:06:00.067Z,39.87
2022-10-10T14:07:17.237Z,40.09
2022-10-10T14:08:30.730Z,40.35
2022-10-10T14:09:44.086Z,40.11
2022-10-10T14:11:03.427Z,40.28
2022-10-10T14:12:15.158Z,40.60
2022-10-10T14:13:18.465Z,40.67
2022-10-10T14:14:25.010Z,40.71
2022-10-10T14:15:43.293Z,40.99
2022-10-10T14:16:57.675Z,41.13
2022-10-10T14:18:00.865Z,41.28
2022-10-10T14:19:14.705Z,41.56
2022-10-10T14:20:17.805Z,41.60
2022-10-10T14:21:21.400Z,41.86
2022-10-10T14:22:24.613Z,42.24
2022-10-10T14:23:27.630Z,42.50
2022-10-10T14:24:31.253Z,42.75
2022-10-10T14:25:34.407Z,42.92
2022-10-10T14:26:37.509Z,43.20
2022-10-10T14:27:40.744Z,43.51
2022-10-10T14:28:44.181Z,43.95
2022-10-10T14:29:47.438Z,44.25
2022-10-10T14:30:50.675Z,44.28
2022-10-10T14:31:53.736Z,44.83
2022-10-10T14:32:56.870Z,44.95
2022-10-10T14:33:59.875Z,45.16
2022-10-10T14:35:02.921Z,45.52
2022-10-10T14:36:06.329Z,45.65
2022-10-10T14:37:27.093Z,45.94
2022-10-10T14:38:30.579Z,46.22
2022-10-10T14:39:33.639Z,46.64
2022-10-10T14:40:37.235Z,47.04
2022-10-10T14:41:40.336Z,47.16